| time (UTC) | temp F | wind direction | speed knots | gust knots | rain 1hr in | rain 24hr in | rain mn in | humidity % | barometer mb |
| 20260505230037 | 64 | 2.6 | 13.0 | 0.00 | 0.00 | 0.00 | 69 | 1011.6 | |
| 20260505224525 | 65 | 4.3 | 11.3 | 0.00 | 0.00 | 0.00 | 67 | 1011.6 | |
| 20260505223025 | 65 | 1.7 | 20.0 | 0.00 | 0.00 | 0.00 | 66 | 1011.5 | |
| 20260505221522 | 67 | 0.0 | 17.4 | 0.00 | 0.00 | 0.00 | 64 | 1011.4 | |
| 20260505220024 | 67 | 2.6 | 15.6 | 0.00 | 0.00 | 0.00 | 63 | 1011.4 | |
| 20260505214517 | 67 | 4.3 | 15.6 | 0.00 | 0.00 | 0.00 | 62 | 1011.2 | |
| 20260505213021 | 68 | 4.3 | 14.8 | 0.00 | 0.00 | 0.00 | 62 | 1011.2 | |
| 20260505211517 | 68 | 3.5 | 13.9 | 0.00 | 0.00 | 0.00 | 63 | 1011.1 | |
| 20260505210010 | 67 | 1.7 | 14.8 | 0.00 | 0.00 | 0.00 | 65 | 1011.2 | |
| 20260505204510 | 67 | 3.5 | 18.2 | 0.00 | 0.00 | 0.00 | 65 | 1011.1 | |
| 20260505203008 | 68 | 2.6 | 15.6 | 0.00 | 0.00 | 0.00 | 64 | 1011.1 | |
| 20260505201506 | 68 | 2.6 | 13.9 | 0.00 | 0.00 | 0.00 | 64 | 1011.3 | |
| 20260505200003 | 69 | 5.2 | 16.5 | 0.00 | 0.00 | 0.00 | 62 | 1011.2 | |
| 20260505194559 | 69 | 0.0 | 13.9 | 0.00 | 0.00 | 0.00 | 62 | 1011.6 | |
| 20260505193057 | 70 | 0.9 | 12.2 | 0.00 | 0.00 | 0.00 | 61 | 1011.7 | |
| 20260505191603 | 69 | 0.0 | 12.2 | 0.00 | 0.00 | 0.00 | 64 | 1012.2 | |
| 20260505190057 | 69 | 0.0 | 11.3 | 0.00 | 0.00 | 0.00 | 64 | 1012.3 | |
| 20260505184547 | 69 | 3.5 | 9.6 | 0.00 | 0.00 | 0.00 | 63 | 1012.6 | |
| 20260505183108 | 69 | 0.9 | 7.8 | 0.00 | 0.00 | 0.00 | 65 | 1012.7 | |
| 20260505181541 | 69 | 0.0 | 10.4 | 0.00 | 0.00 | 0.00 | 66 | 1012.8 | |
| 20260505180042 | 69 | 0.0 | 0.9 | 0.00 | 0.00 | 0.00 | 66 | 1012.9 | |
| 20260505174537 | 68 | 0.0 | 0.0 | 0.00 | 0.00 | 0.00 | 67 | 1012.9 | |
| 20260505173046 | 68 | 0.0 | 8.7 | 0.00 | 0.00 | 0.00 | 67 | 1012.9 | |
| 20260505171542 | 68 | 0.0 | 7.0 | 0.00 | 0.00 | 0.00 | 66 | 1013.0 | |
| 20260505170030 | 69 | 0.0 | 8.7 | 0.00 | 0.00 | 0.00 | 65 | 1013.1 | |
| 20260505164527 | 71 | 0.0 | 8.7 | 0.00 | 0.00 | 0.00 | 65 | 1013.2 | |
| 20260505163025 | 71 | 0.0 | 3.5 | 0.00 | 0.00 | 0.00 | 64 | 1013.3 | |
| 20260505161522 | 71 | 0.0 | 3.5 | 0.00 | 0.00 | 0.00 | 62 | 1013.5 | |
| 20260505153013 | 69 | 0.0 | 5.2 | 0.00 | 0.00 | 0.00 | 65 | 1013.6 | |
| 20260505151510 | 69 | 0.0 | 0.0 | 0.00 | 0.00 | 0.00 | 66 | 1014.0 | |
| 20260505124531 | 63 | 0.0 | 0.9 | 0.00 | 0.00 | 0.00 | 77 | 1013.7 | |
| 20260505123026 | 62 | 0.0 | 0.0 | 0.00 | 0.00 | 0.00 | 79 | 1013.5 | |
| 20260505121524 | 60 | 0.0 | 0.0 | 0.00 | 0.00 | 0.00 | 81 | 1013.6 | |
| 20260505120045 | 60 | 0.0 | 0.0 | 0.00 | 0.00 | 0.00 | 83 | 1013.8 | |
| 20260505114512 | 58 | 0.0 | 0.0 | 0.00 | 0.00 | 0.00 | 85 | 1013.8 | |
| 20260505113008 | 57 | 0.0 | 0.0 | 0.00 | 0.00 | 0.00 | 88 | 1013.9 | |
| 20260505111503 | 56 | 0.0 | 0.0 | 0.00 | 0.00 | 0.00 | 90 | 1013.7 | |
| 20260505101554 | 52 | 0.0 | 0.0 | 0.00 | 0.00 | 0.00 | 95 | 1013.1 | |
| 20260505100052 | 52 | 0.0 | 0.0 | 0.00 | 0.00 | 0.00 | 95 | 1012.8 | |
| 20260505094549 | 51 | 0.0 | 0.0 | 0.00 | 0.00 | 0.00 | 94 | 1012.7 | |
| 20260505093046 | 51 | 0.0 | 0.0 | 0.00 | 0.00 | 0.00 | 93 | 1012.9 | |
| 20260505091543 | 52 | 0.0 | 0.0 | 0.00 | 0.00 | 0.00 | 93 | 1012.8 | |
| 20260505090045 | 52 | 0.0 | 0.0 | 0.00 | 0.00 | 0.00 | 93 | 1012.9 | |
| 20260505084536 | 53 | 0.0 | 0.0 | 0.00 | 0.00 | 0.00 | 93 | 1012.7 | |
| 20260505083032 | 53 | 0.0 | 0.0 | 0.00 | 0.00 | 0.00 | 93 | 1012.8 | |
| 20260505081538 | 53 | 0.0 | 0.0 | 0.00 | 0.00 | 0.00 | 92 | 1012.8 | |
| 20260505080030 | 53 | 0.0 | 0.0 | 0.00 | 0.00 | 0.00 | 92 | 1012.9 | |
| 20260505074525 | 53 | 0.0 | 0.0 | 0.00 | 0.00 | 0.00 | 92 | 1012.8 | |
| 20260505073035 | 53 | 0.0 | 0.0 | 0.00 | 0.00 | 0.00 | 92 | 1012.8 | |
| 20260505071520 | 53 | 0.0 | 0.0 | 0.00 | 0.00 | 0.00 | 91 | 1012.9 | |
| 20260505070020 | 53 | 0.0 | 0.0 | 0.00 | 0.00 | 0.00 | 91 | 1012.8 | |
| 20260505064531 | 53 | 0.0 | 0.0 | 0.00 | 0.00 | 0.00 | 91 | 1012.8 | |
| 20260505063011 | 53 | 0.0 | 0.0 | 0.00 | 0.00 | 0.00 | 91 | 1013.0 | |
| 20260505061524 | 53 | 0.0 | 0.0 | 0.00 | 0.00 | 0.00 | 91 | 1013.1 | |
| 20260505060007 | 54 | 0.0 | 0.0 | 0.00 | 0.00 | 0.00 | 90 | 1013.2 | |
| 20260505054505 | 54 | 0.0 | 0.0 | 0.00 | 0.00 | 0.00 | 90 | 1013.3 | |
| 20260505053001 | 54 | 0.0 | 0.0 | 0.00 | 0.00 | 0.00 | 89 | 1013.4 | |
| 20260505051558 | 54 | 0.0 | 0.0 | 0.00 | 0.00 | 0.00 | 89 | 1013.4 | |
| 20260505041555 | 55 | 0.0 | 0.0 | 0.00 | 0.00 | 0.00 | 85 | 1013.7 | |
| 20260505040042 | 55 | 0.0 | 0.0 | 0.00 | 0.00 | 0.00 | 84 | 1013.8 | |
| 20260505034539 | 56 | 0.0 | 0.0 | 0.00 | 0.00 | 0.00 | 82 | 1013.8 | |
| 20260505033037 | 56 | 0.0 | 0.0 | 0.00 | 0.00 | 0.00 | 80 | 1013.7 | |
| 20260505031546 | 56 | 0.0 | 0.9 | 0.00 | 0.00 | 0.00 | 80 | 1013.8 | |
| 20260505030032 | 56 | 0.0 | 0.9 | 0.00 | 0.00 | 0.00 | 80 | 1013.8 | |
| 20260505024538 | 56 | 0.0 | 0.0 | 0.00 | 0.00 | 0.00 | 80 | 1014.0 | |
| 20260505023029 | 56 | 0.0 | 0.0 | 0.00 | 0.00 | 0.00 | 78 | 1013.9 | |
| 20260505021528 | 56 | 0.0 | 0.0 | 0.00 | 0.00 | 0.00 | 79 | 1014.1 | |
| 20260505020031 | 56 | 0.0 | 0.9 | 0.00 | 0.00 | 0.00 | 79 | 1014.0 | |
| 20260505014527 | 56 | 0.0 | 0.9 | 0.00 | 0.00 | 0.00 | 78 | 1013.8 | |
| 20260505013021 | 57 | 0.0 | 0.9 | 0.00 | 0.00 | 0.00 | 76 | 1013.7 | |
| 20260505011528 | 57 | 0.0 | 6.1 | 0.00 | 0.00 | 0.00 | 73 | 1013.4 | |
| 20260505010015 | 58 | 0.0 | 3.5 | 0.00 | 0.00 | 0.00 | 72 | 1013.3 | |
| 20260505004533 | 58 | 0.0 | 8.7 | 0.00 | 0.00 | 0.00 | 71 | 1013.1 | |
| 20260505003011 | 58 | 0.0 | 4.3 | 0.00 | 0.00 | 0.00 | 71 | 1012.9 | |
| 20260505001509 | 57 | 0.0 | 6.1 | 0.00 | 0.00 | 0.00 | 72 | 1012.7 | |
| 20260505000008 | 57 | 0.0 | 6.1 | 0.00 | 0.00 | 0.00 | 73 | 1012.8 | |
| 20260504234505 | 57 | 0.0 | 10.4 | 0.00 | 0.00 | 0.00 | 73 | 1012.5 | |
| 20260504233003 | 58 | 0.9 | 11.3 | 0.00 | 0.00 | 0.00 | 72 | 1012.4 | |
| 20260504231602 | 58 | 0.9 | 11.3 | 0.00 | 0.00 | 0.00 | 71 | 1012.4 |